AFR91X KMIA-LFPG
Flight info
| Callsign | AFR91X |
|---|---|
| Flight time | N/A |
| Altitude | 35000 |
| Route | FOLZZ3 ALYRA DCT CARPX DCT PRTHR DCT CHIEZ Q161 KALDA Q167 HOFFI DCT BRADD N261B NICSO/M084F380 NATX ELSOX/M084F390 DCT ARKIL/N0482F390 DCT ANNET UM25 INGOR/N0440F280 UM25 LUKIP |
| Aircraft | A359/H-SDE2E3GHIJ3J4J5LM1ORWXY/LB1D1 |
Departure
| Time | 2026-05-05 21:47 |
|---|---|
| Airport | Miami International Airport (KMIA) |
Arrival
| Time | N/A |
|---|---|
| Airport | Charles de Gaulle International Airport (LFPG) |
| Time | Latitude | Longitude | Altitude | Speed | Heading |
|---|---|---|---|---|---|
| 2026-05-05 19:16 | 25.79178 | -80.27421 | 23 ft | 0 kts | 79° |
| 2026-05-05 21:36 | 25.79176 | -80.27429 | 24 ft | 2 kts | 77° |
| 2026-05-05 21:36 | 25.79173 | -80.27447 | 25 ft | 2 kts | 76° |
| 2026-05-05 21:36 | 25.79169 | -80.27465 | 26 ft | 2 kts | 77° |
| 2026-05-05 21:37 | 25.79167 | -80.27483 | 28 ft | 2 kts | 114° |
| 2026-05-05 21:37 | 25.79179 | -80.27494 | 28 ft | 2 kts | 169° |
| 2026-05-05 21:37 | 25.79186 | -80.27495 | 28 ft | 0 kts | 175° |
| 2026-05-05 21:39 | 25.79181 | -80.27495 | 23 ft | 3 kts | 175° |
| 2026-05-05 21:39 | 25.79124 | -80.27492 | 23 ft | 13 kts | 178° |
| 2026-05-05 21:40 | 25.79019 | -80.27487 | 25 ft | 15 kts | 177° |
| 2026-05-05 21:40 | 25.78926 | -80.27505 | 27 ft | 13 kts | 223° |
| 2026-05-05 21:40 | 25.78892 | -80.27592 | 26 ft | 13 kts | 258° |
| 2026-05-05 21:40 | 25.78879 | -80.27693 | 24 ft | 14 kts | 267° |
| 2026-05-05 21:41 | 25.78874 | -80.27799 | 25 ft | 14 kts | 266° |
| 2026-05-05 21:41 | 25.78869 | -80.27899 | 27 ft | 12 kts | 269° |
| 2026-05-05 21:41 | 25.78895 | -80.27994 | 28 ft | 15 kts | 300° |
| 2026-05-05 21:41 | 25.78959 | -80.28117 | 28 ft | 22 kts | 300° |
| 2026-05-05 21:42 | 25.79042 | -80.28278 | 27 ft | 24 kts | 300° |
| 2026-05-05 21:42 | 25.79131 | -80.28443 | 27 ft | 26 kts | 302° |
| 2026-05-05 21:42 | 25.79228 | -80.28614 | 22 ft | 26 kts | 302° |
| 2026-05-05 21:42 | 25.79321 | -80.28791 | 20 ft | 27 kts | 299° |
| 2026-05-05 21:43 | 25.79410 | -80.28964 | 23 ft | 25 kts | 300° |
| 2026-05-05 21:43 | 25.79496 | -80.29130 | 26 ft | 24 kts | 298° |
| 2026-05-05 21:43 | 25.79575 | -80.29289 | 31 ft | 23 kts | 299° |
| 2026-05-05 21:43 | 25.79657 | -80.29449 | 27 ft | 24 kts | 300° |
| 2026-05-05 21:44 | 25.79740 | -80.29612 | 21 ft | 25 kts | 299° |
| 2026-05-05 21:44 | 25.79825 | -80.29779 | 19 ft | 23 kts | 299° |
| 2026-05-05 21:44 | 25.79887 | -80.29900 | 20 ft | 17 kts | 299° |
| 2026-05-05 21:44 | 25.79918 | -80.29961 | 19 ft | 7 kts | 299° |
| 2026-05-05 21:45 | 25.79944 | -80.30014 | 19 ft | 9 kts | 299° |
| 2026-05-05 21:45 | 25.79975 | -80.30075 | 20 ft | 9 kts | 299° |
| 2026-05-05 21:45 | 25.80010 | -80.30112 | 22 ft | 7 kts | 334° |
| 2026-05-05 21:45 | 25.80054 | -80.30113 | 22 ft | 6 kts | 28° |
| 2026-05-05 21:46 | 25.80075 | -80.30069 | 21 ft | 7 kts | 86° |
| 2026-05-05 21:46 | 25.80075 | -80.30053 | 20 ft | 9 kts | 90° |
| 2026-05-05 21:46 | 25.80089 | -80.29712 | 21 ft | 79 kts | 87° |
| 2026-05-05 21:46 | 25.80124 | -80.28857 | 28 ft | 141 kts | 87° |
| 2026-05-05 21:47 | 25.80174 | -80.27586 | 282 ft | 174 kts | 86° |
| 2026-05-05 21:47 | 25.80201 | -80.26270 | 1123 ft | 172 kts | 90° |
| 2026-05-05 21:47 | 25.80043 | -80.24900 | 1697 ft | 181 kts | 107° |
| 2026-05-05 21:47 | 25.79512 | -80.23615 | 1910 ft | 191 kts | 117° |
| 2026-05-05 21:48 | 25.78842 | -80.22265 | 1999 ft | 208 kts | 117° |
| 2026-05-05 21:48 | 25.78138 | -80.20808 | 2103 ft | 222 kts | 116° |
| 2026-05-05 21:48 | 25.77397 | -80.19241 | 2299 ft | 235 kts | 115° |
| 2026-05-05 21:48 | 25.76628 | -80.17578 | 2483 ft | 249 kts | 116° |
| 2026-05-05 21:49 | 25.75778 | -80.15845 | 2718 ft | 260 kts | 118° |
| 2026-05-05 21:49 | 25.74889 | -80.14066 | 3102 ft | 266 kts | 117° |
| 2026-05-05 21:49 | 25.74292 | -80.12116 | 3455 ft | 270 kts | 95° |
| 2026-05-05 21:49 | 25.74523 | -80.10059 | 3802 ft | 272 kts | 66° |
| 2026-05-05 21:50 | 25.75538 | -80.08309 | 4211 ft | 272 kts | 47° |
| 2026-05-05 21:50 | 25.76800 | -80.06733 | 4630 ft | 274 kts | 46° |
| 2026-05-05 21:50 | 25.78072 | -80.05167 | 5030 ft | 277 kts | 46° |
| 2026-05-05 21:50 | 25.79361 | -80.03559 | 5439 ft | 280 kts | 46° |
| 2026-05-05 21:51 | 25.80652 | -80.01938 | 5853 ft | 282 kts | 46° |
| 2026-05-05 21:51 | 25.81957 | -80.00290 | 6279 ft | 284 kts | 46° |
| 2026-05-05 21:51 | 25.83264 | -79.98636 | 6693 ft | 286 kts | 46° |
| 2026-05-05 21:51 | 25.84575 | -79.96973 | 7083 ft | 287 kts | 47° |
| 2026-05-05 21:52 | 25.87236 | -79.93593 | 7833 ft | 293 kts | 46° |
| 2026-05-05 21:52 | 25.88583 | -79.91880 | 8219 ft | 296 kts | 46° |
| 2026-05-05 21:52 | 25.89945 | -79.90147 | 8597 ft | 299 kts | 46° |
| 2026-05-05 21:53 | 25.91317 | -79.88402 | 8988 ft | 301 kts | 46° |
| 2026-05-05 21:53 | 25.92684 | -79.86662 | 9357 ft | 304 kts | 46° |
| 2026-05-05 21:53 | 25.94080 | -79.84883 | 9750 ft | 307 kts | 46° |
| 2026-05-05 21:53 | 25.95489 | -79.83088 | 10100 ft | 310 kts | 46° |
| 2026-05-05 21:54 | 25.96927 | -79.81256 | 10276 ft | 319 kts | 46° |
| 2026-05-05 21:54 | 25.98409 | -79.79369 | 10442 ft | 329 kts | 46° |
| 2026-05-05 21:54 | 25.99929 | -79.77431 | 10614 ft | 337 kts | 46° |